Tropical Cyclones
[Index]
Main Index Home Page Stock Weather Photos Extreme Storms Discussion Storm News and Storm Chasing Reports Tropical Cyclones / Hurricanes / Typhoons Weather Data and Links Wild Fires / Bushfires Weather Observation Techniques Weather Picture Catalogue Tornado Pictures and Reports Stock Video Footage and DVDs for sale
Season 2015-2016 Tropical Cyclone DAYA Track Map
Season 2015-2016 Summaries (Operational Data): [AU] [SIO] [SPAC] [SH]
<<- Previous TC | 2015-2016 Season | Next TC ->>

click for intensity scale information  Lat/long Grid: Show Hide

 Date Labels: Show Hide

Operational Tropical Cyclone Data : JTWC Advisories

Name: DAYA
Number: 1610

03 Feb 2016 18:00 UTC to 12 Feb 2016 18:00 UTC

    date/time    lat    long     hPa   cat  kts
2016-02-03 18   12.3    53.6    1010         15          
2016-02-04 00   12.5    53.8    1010         15          
2016-02-04 06   12.7    54.0    1010         15          
2016-02-04 12   12.9    54.2    1010         15          
2016-02-04 18   13.1    54.4    1006         15          
2016-02-05 00   13.3    54.6    1006         20          
2016-02-05 06   13.6    55.0    1007         20          
2016-02-05 12   13.9    55.3    1007         20          
2016-02-05 18   14.0    55.7    1007         20          
2016-02-06 00   14.0    56.2    1004         25          
2016-02-06 06   14.0    56.7    1007         15          
2016-02-06 12   14.1    57.2    1004         25          
2016-02-06 18   14.2    57.8    1004         25          
2016-02-07 00   14.3    58.5    1006         20          
2016-02-07 06   14.6    59.1    1007         20          
2016-02-07 12   15.1    59.1    1007         20          
2016-02-07 18   16.1    58.3    1007         20          
2016-02-08 00   17.0    56.7    1005         20          
2016-02-08 06   17.5    55.4    1005         20          
2016-02-08 12   18.1    53.4    1003         25          
2016-02-08 18   18.6    51.5    1001         25          
2016-02-09 00   19.1    51.1    1000         30          
2016-02-09 06   20.2    50.7    1000         30          
2016-02-09 12   20.9    50.7    1004         25          
2016-02-09 18   21.6    50.9     999         25          
2016-02-10 00   22.3    51.2     999         30          
2016-02-10 06   23.0    51.5     997         30          
2016-02-10 12   23.7    52.0     996    1    35          
2016-02-10 18   23.9    52.6     993    1    40          
2016-02-11 00   24.7    53.2     993    1    40          
2016-02-11 06   25.6    54.0     989    1    45          
2016-02-11 12   26.5    54.9     989    1    45          
2016-02-11 18   27.5    56.0     989    1    45          
2016-02-12 00   29.1    56.4     996    1    35          
2016-02-12 06   30.2    56.8     996    1    35          
2016-02-12 12   32.2    58.2    1000         30          
2016-02-12 18   34.2    60.5    1004         25          
Winds are 10-min average.

Tropical cyclone tracks developed by Michael Bath using operational warnings and advisories and Google Maps.


[Australian Severe Weather index] [Copyright Notice] [Email Contacts] [Search This Site] [Privacy Policy]
Document: tropical_cyclone_daya.htm Updated: 2 May 2017